Time;durP1;ratioP1;P1;durP2;ratioP2;P2;SDS_P1;SDS_P2;PMS_P1;PMS_P2;Temp;Humidity;BMP_temperature;BMP_pressure;BME280_temperature;BME280_humidity;BME280_pressure;Samples;Min_cycle;Max_cycle;Signal;HPM_P1;HPM_P2
2021/09/08 00:00:14;;;;;;;9.37;8.47;;;17.40;99.90;;;;;;5037557;28;20171;-84
2021/09/08 00:02:40;;;;;;;9.87;8.40;;;17.30;99.90;;;;;;5038165;28;20671;-84
2021/09/08 00:05:08;;;;;;;9.27;8.40;;;17.20;99.90;;;;;;5038841;28;20167;-84
2021/09/08 00:07:34;;;;;;;9.50;8.67;;;17.10;99.90;;;;;;5037239;28;20603;-84
2021/09/08 00:09:59;;;;;;;10.37;9.37;;;17.10;99.90;;;;;;5039083;28;20182;-84
2021/09/08 00:12:25;;;;;;;9.70;8.83;;;17.10;99.90;;;;;;5038248;28;20178;-84
2021/09/08 00:14:51;;;;;;;10.23;9.23;;;17.10;99.90;;;;;;5038552;28;20201;-84
2021/09/08 00:17:17;;;;;;;9.83;9.03;;;17.00;99.90;;;;;;5037935;28;20217;-84
2021/09/08 00:19:42;;;;;;;9.50;8.60;;;17.00;99.90;;;;;;5037190;28;20189;-84
2021/09/08 00:22:08;;;;;;;9.53;8.73;;;17.00;99.90;;;;;;5038558;28;20178;-84
2021/09/08 00:24:34;;;;;;;10.33;9.30;;;16.90;99.90;;;;;;5036796;28;20673;-84
2021/09/08 00:27:04;;;;;;;9.90;8.97;;;16.90;99.90;;;;;;5038300;28;20680;-84
2021/09/08 00:29:29;;;;;;;10.47;9.50;;;16.80;99.90;;;;;;5038135;28;20173;-84
2021/09/08 00:31:55;;;;;;;10.57;9.57;;;16.80;99.90;;;;;;5038227;28;20174;-84
2021/09/08 00:34:21;;;;;;;9.87;8.83;;;16.80;99.90;;;;;;5038131;28;20198;-84
2021/09/08 00:36:47;;;;;;;10.03;8.93;;;16.70;99.90;;;;;;5038205;28;20182;-84
2021/09/08 00:39:12;;;;;;;10.17;9.17;;;16.80;99.90;;;;;;5037510;28;20175;-84
2021/09/08 00:41:38;;;;;;;9.83;8.80;;;16.70;99.90;;;;;;5037859;28;20204;-84
2021/09/08 00:44:12;;;;;;;11.37;9.33;;;16.80;99.90;;;;;;5036306;28;20214;-84
2021/09/08 00:46:43;;;;;;;10.13;9.23;;;16.80;99.90;;;;;;5035064;28;20281;-84
2021/09/08 00:49:09;;;;;;;10.17;9.17;;;16.80;99.90;;;;;;5031060;28;20268;-84
2021/09/08 00:51:36;;;;;;;10.17;9.17;;;16.70;99.90;;;;;;5034671;28;20184;-84
2021/09/08 00:54:05;;;;;;;10.40;9.17;;;16.70;99.90;;;;;;5031488;28;20213;-84
2021/09/08 00:56:31;;;;;;;10.30;9.30;;;16.70;99.90;;;;;;5027719;28;20224;-84
2021/09/08 00:58:57;;;;;;;10.50;9.40;;;16.70;99.90;;;;;;5036603;28;20245;-84
2021/09/08 01:01:23;;;;;;;10.67;9.33;;;16.60;99.90;;;;;;5021128;28;20242;-84
2021/09/08 01:03:49;;;;;;;10.47;9.50;;;16.60;99.90;;;;;;5030733;28;20202;-84
2021/09/08 01:06:15;;;;;;;10.43;9.43;;;16.60;99.90;;;;;;5032137;28;20714;-84
2021/09/08 01:08:41;;;;;;;11.10;9.57;;;16.60;99.90;;;;;;5030818;28;20269;-84
2021/09/08 01:11:08;;;;;;;10.37;9.47;;;16.60;99.90;;;;;;5049308;28;20175;-84
2021/09/08 01:13:33;;;;;;;10.70;9.70;;;16.50;99.90;;;;;;5049384;28;20202;-85
2021/09/08 01:16:01;;;;;;;10.83;9.53;;;16.40;99.90;;;;;;5052693;28;20182;-84
2021/09/08 01:18:28;;;;;;;9.37;8.57;;;16.40;99.90;;;;;;5033018;28;20178;-84
2021/09/08 01:20:54;;;;;;;10.57;9.57;;;16.30;99.90;;;;;;5034439;28;20188;-84
2021/09/08 01:23:20;;;;;;;10.33;8.80;;;16.30;99.90;;;;;;5034514;28;20217;-84
2021/09/08 01:25:46;;;;;;;10.50;9.50;;;16.30;99.90;;;;;;5034488;28;20609;-83
2021/09/08 01:28:12;;;;;;;10.87;9.77;;;16.30;99.90;;;;;;5035257;28;20184;-84
2021/09/08 01:30:41;;;;;;;10.70;9.60;;;16.30;99.90;;;;;;5035567;28;20186;-84
2021/09/08 01:33:14;;;;;;;11.47;10.17;;;16.30;99.90;;;;;;5033393;28;20194;-84
2021/09/08 01:35:40;;;;;;;10.07;9.10;;;16.20;99.90;;;;;;5032656;28;20665;-84
2021/09/08 01:38:06;;;;;;;12.67;9.47;;;16.20;99.90;;;;;;5019023;28;20182;-84
2021/09/08 01:40:32;;;;;;;10.10;9.30;;;16.10;99.90;;;;;;5017035;28;20186;-84
2021/09/08 01:42:58;;;;;;;10.03;9.20;;;16.10;99.90;;;;;;5017821;28;20218;-84
2021/09/08 01:45:25;;;;;;;10.57;9.57;;;16.10;99.90;;;;;;5017335;28;20182;-84
2021/09/08 01:47:54;;;;;;;10.70;9.70;;;16.00;99.90;;;;;;5015365;28;20240;-83
2021/09/08 01:50:21;;;;;;;11.47;10.40;;;16.00;99.90;;;;;;5013488;28;20179;-83
2021/09/08 01:52:46;;;;;;;10.37;9.40;;;16.00;99.90;;;;;;5015514;28;20304;-84
2021/09/08 01:55:13;;;;;;;10.53;9.63;;;16.00;99.90;;;;;;5019204;28;20271;-84
2021/09/08 01:57:39;;;;;;;11.43;10.43;;;15.90;99.90;;;;;;5015871;28;20194;-84
2021/09/08 02:00:07;;;;;;;13.03;10.13;;;15.90;99.90;;;;;;5027671;28;20547;-84
2021/09/08 02:02:33;;;;;;;11.50;10.40;;;15.90;99.90;;;;;;5025741;28;20208;-84
2021/09/08 02:04:59;;;;;;;10.10;9.10;;;15.90;99.90;;;;;;5048245;28;20194;-84
2021/09/08 02:07:24;;;;;;;10.93;9.83;;;15.80;99.90;;;;;;5033894;28;20174;-84
2021/09/08 02:09:50;;;;;;;10.70;9.73;;;15.80;99.90;;;;;;5033718;28;20175;-84
2021/09/08 02:12:16;;;;;;;11.50;10.40;;;15.80;99.90;;;;;;5035285;28;20166;-84
2021/09/08 02:14:41;;;;;;;10.53;9.53;;;15.80;99.90;;;;;;5034300;28;20561;-84
2021/09/08 02:17:07;;;;;;;11.03;10.07;;;15.70;99.90;;;;;;5035799;28;20174;-84
2021/09/08 02:19:33;;;;;;;11.27;10.13;;;15.70;99.90;;;;;;5035330;28;20174;-84
2021/09/08 02:21:58;;;;;;;11.33;10.27;;;15.70;99.90;;;;;;5036655;28;20188;-84
2021/09/08 02:24:24;;;;;;;10.87;9.87;;;15.60;99.90;;;;;;5034475;28;20212;-84
2021/09/08 02:26:49;;;;;;;12.07;10.13;;;15.60;99.90;;;;;;5034689;28;20547;-84
2021/09/08 02:29:15;;;;;;;11.23;10.23;;;15.60;99.90;;;;;;5034442;28;20634;-84
2021/09/08 02:31:41;;;;;;;11.20;10.10;;;15.60;99.90;;;;;;5034166;28;20277;-83
2021/09/08 02:34:06;;;;;;;11.40;10.20;;;15.50;99.90;;;;;;5033118;28;20628;-84
2021/09/08 02:36:32;;;;;;;12.53;11.33;;;15.50;99.90;;;;;;5033243;28;20170;-84
2021/09/08 02:39:00;;;;;;;11.03;10.00;;;15.60;99.90;;;;;;5033232;28;20209;-84
2021/09/08 02:41:25;;;;;;;11.53;10.43;;;15.50;99.90;;;;;;5034939;28;20681;-84
2021/09/08 02:43:51;;;;;;;11.60;10.50;;;15.50;99.90;;;;;;5034172;28;20300;-84
2021/09/08 02:46:17;;;;;;;12.30;11.10;;;15.50;99.90;;;;;;5034327;28;20170;-83
2021/09/08 02:48:43;;;;;;;10.97;9.87;;;15.50;99.90;;;;;;5032197;28;20597;-84
2021/09/08 02:51:09;;;;;;;11.13;10.10;;;15.50;99.90;;;;;;5032334;28;20179;-83
2021/09/08 02:53:34;;;;;;;11.17;10.10;;;15.40;99.90;;;;;;5032721;28;20565;-84
2021/09/08 02:56:01;;;;;;;12.10;11.00;;;15.30;99.90;;;;;;5031783;28;20557;-83
2021/09/08 02:58:29;;;;;;;10.77;9.67;;;15.40;99.90;;;;;;5032436;28;20182;-84
2021/09/08 03:00:55;;;;;;;11.03;10.03;;;15.30;99.90;;;;;;5033397;28;20264;-83
2021/09/08 03:03:21;;;;;;;10.60;9.70;;;15.20;99.90;;;;;;5033034;28;20293;-83
2021/09/08 03:05:47;;;;;;;12.70;10.27;;;15.10;99.90;;;;;;5033395;28;20185;-84
2021/09/08 03:08:13;;;;;;;11.57;10.57;;;15.00;99.90;;;;;;5032347;28;20174;-83
2021/09/08 03:10:39;;;;;;;12.47;11.20;;;15.00;99.90;;;;;;5033692;28;20193;-83
2021/09/08 03:13:05;;;;;;;11.03;10.03;;;15.00;99.90;;;;;;5035946;28;20194;-83
2021/09/08 03:15:32;;;;;;;11.63;10.53;;;15.00;99.90;;;;;;5037156;28;20186;-83
2021/09/08 03:17:58;;;;;;;10.87;9.63;;;14.90;99.90;;;;;;5037042;28;20205;-84
2021/09/08 03:20:23;;;;;;;11.73;10.43;;;14.80;99.90;;;;;;5035832;28;20230;-84
2021/09/08 03:22:49;;;;;;;11.60;10.50;;;14.70;99.90;;;;;;5036552;28;20198;-83
2021/09/08 03:25:15;;;;;;;11.13;10.13;;;14.70;99.90;;;;;;5035580;28;20601;-83
2021/09/08 03:27:41;;;;;;;11.00;10.00;;;14.70;99.90;;;;;;5042995;28;20181;-83
2021/09/08 03:30:09;;;;;;;11.67;10.57;;;14.60;99.90;;;;;;5044526;28;20166;-84
2021/09/08 03:32:35;;;;;;;10.60;9.70;;;14.70;99.90;;;;;;5055959;28;20171;-84
2021/09/08 03:35:00;;;;;;;10.70;9.70;;;14.70;99.90;;;;;;5051162;28;20689;-83
2021/09/08 03:37:26;;;;;;;11.47;10.10;;;14.70;99.90;;;;;;5040487;28;20547;-84
2021/09/08 03:39:52;;;;;;;11.70;10.50;;;14.60;99.90;;;;;;5039156;28;20183;-83
2021/09/08 03:42:20;;;;;;;11.43;10.40;;;14.60;99.90;;;;;;5038455;28;20736;-84
2021/09/08 03:44:46;;;;;;;11.40;10.30;;;14.40;99.90;;;;;;5038012;28;20273;-84
2021/09/08 03:47:12;;;;;;;11.63;10.50;;;14.30;99.90;;;;;;5037157;28;20201;-83
2021/09/08 03:49:37;;;;;;;12.03;10.40;;;16.20;99.90;;;;;;5037259;28;20183;-83
2021/09/08 03:52:03;;;;;;;10.87;9.87;;;14.00;99.90;;;;;;5037221;28;20194;-84
2021/09/08 03:54:29;;;;;;;11.47;10.37;;;14.10;99.90;;;;;;5038145;28;20240;-84
2021/09/08 03:56:54;;;;;;;10.83;9.73;;;14.10;99.90;;;;;;5037911;28;20200;-83
2021/09/08 03:59:23;;;;;;;12.30;10.20;;;14.10;99.90;;;;;;5051883;28;20177;-83
2021/09/08 04:01:49;;;;;;;12.90;11.23;;;14.20;99.90;;;;;;5035431;28;20590;-82
2021/09/08 04:04:15;;;;;;;11.07;9.97;;;14.10;99.90;;;;;;5037060;28;20216;-83
2021/09/08 04:06:41;;;;;;;12.03;10.80;;;14.10;99.90;;;;;;5035180;28;20177;-84
2021/09/08 04:09:06;;;;;;;13.50;10.80;;;14.00;99.90;;;;;;5038302;28;20183;-83
2021/09/08 04:11:32;;;;;;;11.47;10.47;;;14.00;99.90;;;;;;5037578;28;20598;-83
2021/09/08 04:13:58;;;;;;;11.47;10.37;;;13.90;99.90;;;;;;5036473;28;20248;-83
2021/09/08 04:16:23;;;;;;;11.33;10.23;;;13.80;99.90;;;;;;5036351;28;20213;-83
2021/09/08 04:18:49;;;;;;;11.63;10.63;;;13.90;99.90;;;;;;5036712;28;20177;-83
2021/09/08 04:21:15;;;;;;;10.67;9.70;;;14.00;99.90;;;;;;5037955;28;20201;-83
2021/09/08 04:23:40;;;;;;;10.80;9.90;;;14.00;99.90;;;;;;5036871;28;20203;-84
2021/09/08 04:26:06;;;;;;;11.80;10.60;;;13.90;99.90;;;;;;5046282;28;20169;-84
2021/09/08 04:28:32;;;;;;;11.57;10.50;;;13.90;99.90;;;;;;5043585;28;20653;-83
2021/09/08 04:31:01;;;;;;;11.57;10.47;;;;;;;;;;5036830;28;20241;-84
2021/09/08 04:33:29;;;;;;;11.50;10.37;;;14.10;99.90;;;;;;5037991;28;20198;-83
2021/09/08 04:35:56;;;;;;;11.93;10.83;;;13.80;99.90;;;;;;5035687;28;20170;-82
2021/09/08 04:38:23;;;;;;;11.50;10.27;;;13.90;99.90;;;;;;5037730;28;20182;-82
2021/09/08 04:40:49;;;;;;;12.90;11.47;;;14.00;99.90;;;;;;5037347;28;20257;-83
2021/09/08 04:43:15;;;;;;;11.33;10.27;;;13.80;99.90;;;;;;5035462;28;20285;-83
2021/09/08 04:45:42;;;;;;;13.13;10.80;;;;;;;;;;5035556;28;20181;-81
2021/09/08 04:48:08;;;;;;;11.47;10.37;;;13.60;99.90;;;;;;5025226;28;20174;-83
2021/09/08 04:50:34;;;;;;;13.30;10.60;;;13.70;99.90;;;;;;5033586;28;20179;-83
2021/09/08 04:53:00;;;;;;;11.93;10.83;;;13.60;99.90;;;;;;5034257;28;20205;-84
2021/09/08 04:55:26;;;;;;;12.57;11.47;;;13.60;99.90;;;;;;5036102;28;20181;-84
2021/09/08 04:57:51;;;;;;;11.63;10.63;;;13.60;99.90;;;;;;5035572;28;20174;-83
2021/09/08 05:00:17;;;;;;;12.93;11.53;;;13.70;99.90;;;;;;5035571;28;20178;-83
2021/09/08 05:02:43;;;;;;;12.40;11.30;;;13.70;99.90;;;;;;5035289;28;20194;-83
2021/09/08 05:05:09;;;;;;;11.80;10.53;;;13.70;99.90;;;;;;5027400;28;20167;-83
2021/09/08 05:07:35;;;;;;;12.13;11.07;;;13.70;99.90;;;;;;5033205;28;20690;-84
2021/09/08 05:10:00;;;;;;;11.97;10.77;;;13.70;99.90;;;;;;5035002;28;20206;-83
2021/09/08 05:12:26;;;;;;;13.63;11.00;;;13.70;99.90;;;;;;5027378;28;20194;-83
2021/09/08 05:14:52;;;;;;;14.03;12.07;;;13.70;99.90;;;;;;5035755;28;20190;-83
2021/09/08 05:17:17;;;;;;;13.60;12.30;;;13.70;99.90;;;;;;5034871;28;20268;-83
2021/09/08 05:19:43;;;;;;;13.00;11.67;;;13.70;99.90;;;;;;5033104;28;20653;-83
2021/09/08 05:22:09;;;;;;;16.40;11.07;;;13.60;99.90;;;;;;5036816;28;20192;-83
2021/09/08 05:24:34;;;;;;;14.03;11.27;;;13.60;99.90;;;;;;5034653;28;20340;-83
2021/09/08 05:27:00;;;;;;;13.10;11.87;;;13.70;99.90;;;;;;5034987;28;20171;-83
2021/09/08 05:29:26;;;;;;;13.17;11.73;;;13.70;99.90;;;;;;5034560;28;20659;-84
2021/09/08 05:31:51;;;;;;;12.23;11.10;;;13.70;99.90;;;;;;5031158;28;20172;-83
2021/09/08 05:34:17;;;;;;;12.03;10.83;;;13.80;99.90;;;;;;5035649;28;20223;-83
2021/09/08 05:36:43;;;;;;;17.70;12.00;;;13.80;99.90;;;;;;5035361;28;20710;-83
2021/09/08 05:39:08;;;;;;;13.20;11.90;;;13.80;99.90;;;;;;5035107;28;20181;-83
2021/09/08 05:41:34;;;;;;;14.20;12.07;;;13.80;99.90;;;;;;5036215;28;20178;-83
2021/09/08 05:43:59;;;;;;;14.20;12.60;;;13.90;99.90;;;;;;5062015;22;20225;-80
2021/09/08 05:46:25;;;;;;;13.87;12.10;;;13.90;99.90;;;;;;5032694;28;20179;-80
2021/09/08 05:48:51;;;;;;;13.10;11.77;;;14.00;99.90;;;;;;5018508;28;20251;-80
2021/09/08 05:51:16;;;;;;;13.93;11.07;;;14.00;99.90;;;;;;5036605;28;20232;-80
2021/09/08 05:53:42;;;;;;;13.93;11.83;;;14.00;99.90;;;;;;5032116;28;20582;-80
2021/09/08 05:56:08;;;;;;;12.63;11.43;;;14.10;99.90;;;;;;5016689;28;20185;-80
2021/09/08 05:58:33;;;;;;;16.97;12.33;;;14.20;99.90;;;;;;5016709;28;20258;-80
2021/09/08 06:00:59;;;;;;;18.80;13.30;;;14.20;99.90;;;;;;5017161;28;20604;-81
2021/09/08 06:03:25;;;;;;;18.73;13.23;;;14.30;99.90;;;;;;5021690;28;20221;-81
2021/09/08 06:05:50;;;;;;;14.27;12.43;;;14.30;99.90;;;;;;5031921;28;20173;-80
2021/09/08 06:08:16;;;;;;;13.50;12.20;;;14.40;99.90;;;;;;5015531;28;20178;-80
2021/09/08 06:10:42;;;;;;;17.07;12.73;;;14.40;99.90;;;;;;5015813;28;20206;-80
2021/09/08 06:13:08;;;;;;;14.87;13.30;;;14.50;99.90;;;;;;5015109;28;20185;-80
2021/09/08 06:15:34;;;;;;;14.97;13.57;;;14.60;99.90;;;;;;5014768;28;20186;-80
2021/09/08 06:18:02;;;;;;;16.50;13.10;;;14.70;99.90;;;;;;5013655;28;20178;-80
2021/09/08 06:20:29;;;;;;;14.63;13.13;;;14.80;99.90;;;;;;5015104;28;20175;-80
2021/09/08 06:22:55;;;;;;;15.60;13.97;;;14.80;99.90;;;;;;5015547;28;20187;-80
2021/09/08 06:25:20;;;;;;;14.37;12.93;;;14.90;99.90;;;;;;5015155;28;20221;-81
2021/09/08 06:27:46;;;;;;;15.13;13.63;;;15.00;99.90;;;;;;5012880;28;20630;-81
2021/09/08 06:30:12;;;;;;;14.17;12.83;;;15.10;99.90;;;;;;5031547;28;20181;-80
2021/09/08 06:32:38;;;;;;;15.37;12.93;;;15.10;99.90;;;;;;5015008;28;20226;-80
2021/09/08 06:35:04;;;;;;;16.40;13.90;;;15.10;99.90;;;;;;5013903;28;20198;-81
2021/09/08 06:37:29;;;;;;;15.90;13.83;;;15.20;99.90;;;;;;5014331;28;20210;-80
2021/09/08 06:39:55;;;;;;;16.07;13.77;;;15.20;99.90;;;;;;5007519;28;20214;-80
2021/09/08 06:42:21;;;;;;;14.67;12.67;;;15.20;99.90;;;;;;5011824;28;20249;-81
2021/09/08 06:44:52;;;;;;;16.97;13.63;;;15.30;99.90;;;;;;5017266;28;20241;-80
2021/09/08 06:47:18;;;;;;;16.27;14.53;;;15.40;99.90;;;;;;5011289;28;20188;-81
2021/09/08 06:49:44;;;;;;;16.80;13.17;;;15.40;99.90;;;;;;5022918;28;20178;-81
2021/09/08 06:52:11;;;;;;;15.80;14.10;;;15.50;99.90;;;;;;5020523;28;20207;-81
2021/09/08 06:54:37;;;;;;;14.83;13.30;;;15.50;99.90;;;;;;5020238;28;20620;-81
2021/09/08 06:57:03;;;;;;;14.20;12.83;;;15.60;99.90;;;;;;5020608;28;20230;-81
2021/09/08 06:59:29;;;;;;;17.93;14.33;;;15.60;99.90;;;;;;5015886;28;20179;-80
2021/09/08 07:01:54;;;;;;;16.23;13.67;;;15.70;99.90;;;;;;5020453;28;20606;-81
2021/09/08 07:04:20;;;;;;;15.63;14.10;;;15.70;99.90;;;;;;5019763;28;20207;-81
2021/09/08 07:06:46;;;;;;;17.77;14.47;;;15.80;99.90;;;;;;5020380;28;20183;-81
2021/09/08 07:09:11;;;;;;;15.53;13.70;;;15.70;99.90;;;;;;5016160;28;20179;-81
2021/09/08 07:11:37;;;;;;;16.60;13.77;;;15.80;99.90;;;;;;5019359;28;20262;-81
2021/09/08 07:14:03;;;;;;;20.27;15.27;;;15.90;99.90;;;;;;5018628;28;20290;-81
2021/09/08 07:16:29;;;;;;;15.77;14.07;;;15.90;99.90;;;;;;5021089;28;20174;-81
2021/09/08 07:18:55;;;;;;;16.03;14.33;;;15.90;99.90;;;;;;5019736;28;20175;-81
2021/09/08 07:21:21;;;;;;;16.17;14.53;;;15.90;99.90;;;;;;5020955;28;20236;-81
2021/09/08 07:23:46;;;;;;;17.97;14.63;;;16.00;99.90;;;;;;5020459;28;20203;-81
2021/09/08 07:26:12;;;;;;;17.63;15.63;;;16.10;99.90;;;;;;5019164;28;20199;-84
2021/09/08 07:28:38;;;;;;;20.10;14.70;;;16.20;99.90;;;;;;5019381;28;20181;-81
2021/09/08 07:31:05;;;;;;;16.43;14.73;;;16.30;99.90;;;;;;5020817;28;20174;-81
2021/09/08 07:33:31;;;;;;;25.20;16.10;;;16.30;99.90;;;;;;5009294;28;20203;-81
2021/09/08 07:35:56;;;;;;;16.87;15.13;;;16.30;99.90;;;;;;5020141;28;20179;-81
2021/09/08 07:38:24;;;;;;;17.90;15.67;;;16.40;99.90;;;;;;5019232;28;20185;-82
2021/09/08 07:40:50;;;;;;;18.43;15.47;;;16.30;99.90;;;;;;5020799;28;20181;-82
2021/09/08 07:43:17;;;;;;;23.70;19.30;;;16.50;99.90;;;;;;5020613;28;20198;-82
2021/09/08 07:45:43;;;;;;;19.37;17.37;;;16.50;99.90;;;;;;5022726;28;20170;-82
2021/09/08 07:48:09;;;;;;;21.83;17.63;;;16.60;99.90;;;;;;5023709;28;20304;-79
2021/09/08 07:50:34;;;;;;;24.50;19.30;;;16.60;99.90;;;;;;5017817;28;20241;-82
2021/09/08 07:53:02;;;;;;;25.67;19.67;;;16.60;99.90;;;;;;5009494;28;20179;-82
2021/09/08 07:55:28;;;;;;;23.20;18.67;;;16.70;99.90;;;;;;5015953;28;20191;-82
2021/09/08 07:57:54;;;;;;;26.03;18.63;;;16.70;99.90;;;;;;5019000;28;20622;-82
2021/09/08 08:00:19;;;;;;;24.77;19.83;;;16.70;99.90;;;;;;5011528;28;20178;-80
2021/09/08 08:02:49;;;;;;;22.33;18.10;;;16.80;99.90;;;;;;5012240;28;20231;-82
2021/09/08 08:05:15;;;;;;;19.73;17.50;;;16.80;99.90;;;;;;5013564;28;20508;-82
2021/09/08 08:07:42;;;;;;;20.40;18.30;;;16.90;99.90;;;;;;5015993;28;20186;-82
2021/09/08 08:10:08;;;;;;;21.73;19.17;;;17.00;99.90;;;;;;5014563;28;20774;-80
2021/09/08 08:12:34;;;;;;;25.40;18.13;;;17.00;99.90;;;;;;5018134;28;20519;-80
2021/09/08 08:15:00;;;;;;;24.07;18.23;;;17.10;99.90;;;;;;5014652;28;20205;-79
2021/09/08 08:17:26;;;;;;;21.53;18.13;;;17.20;99.90;;;;;;5027632;28;20237;-82
2021/09/08 08:19:51;;;;;;;22.90;18.73;;;17.30;99.90;;;;;;5017300;28;20664;-80
2021/09/08 08:22:18;;;;;;;22.07;17.53;;;17.30;99.90;;;;;;5014092;28;20201;-80
2021/09/08 08:24:44;;;;;;;22.13;17.83;;;17.30;99.90;;;;;;5012705;28;20282;-80
2021/09/08 08:27:10;;;;;;;21.57;17.67;;;17.40;99.90;;;;;;5008768;28;20234;-80
2021/09/08 08:29:36;;;;;;;19.77;17.70;;;17.50;99.90;;;;;;5016166;28;20700;-80
2021/09/08 08:32:02;;;;;;;23.20;17.93;;;17.60;99.90;;;;;;5014550;28;20175;-82
2021/09/08 08:34:28;;;;;;;20.37;18.17;;;17.60;99.90;;;;;;5016920;28;20199;-80
2021/09/08 08:36:53;;;;;;;21.10;17.93;;;17.60;99.90;;;;;;5015007;28;20182;-80
2021/09/08 08:39:19;;;;;;;20.17;17.57;;;17.60;99.90;;;;;;5011768;28;20198;-80
2021/09/08 08:41:45;;;;;;;19.03;16.90;;;17.70;99.90;;;;;;5016097;28;20206;-80
2021/09/08 08:44:11;;;;;;;21.03;16.90;;;17.70;99.90;;;;;;5016676;28;20689;-80
2021/09/08 08:46:36;;;;;;;19.17;17.07;;;17.80;99.90;;;;;;5016519;28;20175;-81
2021/09/08 08:49:03;;;;;;;16.90;15.20;;;17.80;99.90;;;;;;5011384;28;20168;-80
2021/09/08 08:51:29;;;;;;;18.40;16.43;;;17.80;99.90;;;;;;5012042;28;20175;-80
2021/09/08 08:53:55;;;;;;;17.13;15.37;;;17.90;99.90;;;;;;5016055;28;20577;-80
2021/09/08 08:56:21;;;;;;;22.20;16.50;;;18.00;99.90;;;;;;5014327;28;20574;-80
2021/09/08 08:58:47;;;;;;;16.57;14.87;;;18.00;99.90;;;;;;5011563;28;20234;-80
2021/09/08 09:01:18;;;;;;;19.33;17.27;;;18.20;99.90;;;;;;5028293;28;20266;-80
2021/09/08 09:04:01;;;;;;;17.97;15.67;;;18.20;99.90;;;;;;5011874;28;20300;-80
2021/09/08 09:06:27;;;;;;;18.20;15.80;;;18.40;99.90;;;;;;5014191;28;20181;-81
2021/09/08 09:09:04;;;;;;;17.83;15.93;;;18.50;99.90;;;;;;5017028;28;20163;-81
2021/09/08 09:11:30;;;;;;;17.80;16.00;;;17.20;99.90;;;;;;5013393;28;20222;-81
2021/09/08 09:13:56;;;;;;;17.53;15.87;;;18.60;99.90;;;;;;5010561;28;20197;-81
2021/09/08 09:16:28;;;;;;;18.13;15.13;;;18.60;99.90;;;;;;5032204;28;20565;-81
2021/09/08 09:18:55;;;;;;;17.23;15.60;;;18.60;99.90;;;;;;5018535;28;20171;-81
2021/09/08 09:21:23;;;;;;;16.90;15.13;;;18.80;99.90;;;;;;5014507;28;20171;-81
2021/09/08 09:23:58;;;;;;;16.13;14.47;;;18.90;99.90;;;;;;5016495;28;20273;-82
2021/09/08 09:26:32;;;;;;;16.50;14.80;;;18.90;99.90;;;;;;5019929;28;20174;-81
2021/09/08 09:29:18;;;;;;;17.70;15.20;;;19.00;99.90;;;;;;5013537;28;20201;-81
2021/09/08 09:31:54;;;;;;;18.00;16.10;;;19.10;99.90;;;;;;5006556;28;20580;-81
2021/09/08 09:34:20;;;;;;;16.53;14.77;;;19.10;99.90;;;;;;5011706;28;20198;-81
2021/09/08 09:36:50;;;;;;;16.70;14.43;;;19.20;99.90;;;;;;5017222;28;20171;-81
2021/09/08 09:39:16;;;;;;;19.47;16.00;;;19.30;99.90;;;;;;5012309;28;20179;-81
2021/09/08 09:41:42;;;;;;;18.87;15.20;;;19.40;99.90;;;;;;5012152;28;20708;-81
2021/09/08 09:44:10;;;;;;;17.70;15.53;;;19.40;99.90;;;;;;5011219;28;20203;-82
2021/09/08 09:46:40;;;;;;;15.70;14.10;;;19.50;99.90;;;;;;5015421;28;20175;-81
2021/09/08 09:49:06;;;;;;;15.23;13.67;;;19.60;99.90;;;;;;5008332;28;20254;-81
2021/09/08 09:51:32;;;;;;;15.37;13.80;;;19.70;99.90;;;;;;5015175;28;20195;-81
2021/09/08 09:53:58;;;;;;;14.87;13.47;;;19.70;99.90;;;;;;5016882;28;20575;-81
2021/09/08 09:56:24;;;;;;;16.23;14.53;;;19.80;99.90;;;;;;5008707;28;20179;-81
2021/09/08 09:58:51;;;;;;;16.67;14.97;;;19.90;99.90;;;;;;5005618;28;20664;-82
2021/09/08 10:01:18;;;;;;;16.70;14.23;;;20.10;99.90;;;;;;5007470;28;20183;-82
2021/09/08 10:03:44;;;;;;;15.73;14.03;;;20.20;99.90;;;;;;5013560;28;20203;-81
2021/09/08 10:06:10;;;;;;;15.80;13.83;;;20.30;99.90;;;;;;5014641;28;20181;-82
2021/09/08 10:08:41;;;;;;;17.27;14.80;;;20.30;99.90;;;;;;5011725;28;20179;-82
2021/09/08 10:11:10;;;;;;;15.00;13.43;;;20.50;99.90;;;;;;5011290;28;20175;-81
2021/09/08 10:13:48;;;;;;;15.10;13.23;;;20.50;99.90;;;;;;5013006;28;20696;-82
2021/09/08 10:16:14;;;;;;;19.27;13.93;;;20.60;99.90;;;;;;5015205;28;20182;-82
2021/09/08 10:18:41;;;;;;;15.23;13.00;;;20.60;99.90;;;;;;5014888;28;20187;-82
2021/09/08 10:21:14;;;;;;;14.47;12.83;;;20.70;99.90;;;;;;5020251;28;20579;-82
2021/09/08 10:23:52;;;;;;;13.37;12.07;;;20.90;99.90;;;;;;5016432;28;20234;-82
2021/09/08 10:26:20;;;;;;;18.97;12.03;;;20.90;99.90;;;;;;5006981;28;20192;-82
2021/09/08 10:28:47;;;;;;;13.07;11.77;;;20.90;99.90;;;;;;5015621;28;20175;-81
2021/09/08 10:31:14;;;;;;;12.73;11.47;;;21.20;99.90;;;;;;5005765;28;20200;-82
2021/09/08 10:33:42;;;;;;;13.70;12.50;;;21.30;99.90;;;;;;5013895;28;20577;-81
2021/09/08 10:36:12;;;;;;;19.07;12.70;;;21.50;99.90;;;;;;5007344;28;20172;-82
2021/09/08 10:38:39;;;;;;;13.67;11.80;;;21.40;99.90;;;;;;5013104;28;20189;-82
2021/09/08 10:41:08;;;;;;;20.30;13.87;;;21.40;99.90;;;;;;5027248;28;20182;-81
2021/09/08 10:43:37;;;;;;;14.23;12.90;;;21.50;99.90;;;;;;5013881;28;20785;-81
2021/09/08 10:46:04;;;;;;;11.83;10.63;;;21.50;99.90;;;;;;5016870;28;20176;-81
2021/09/08 10:48:42;;;;;;;11.97;10.90;;;21.50;99.90;;;;;;5027987;28;20175;-82
2021/09/08 10:51:21;;;;;;;15.07;11.43;;;21.90;99.90;;;;;;5016573;28;20708;-81
2021/09/08 10:54:07;;;;;;;11.80;10.60;;;22.10;99.90;;;;;;5012963;28;20199;-82
2021/09/08 10:56:43;;;;;;;13.10;11.73;;;22.10;99.90;;;;;;5009926;28;20184;-82
2021/09/08 10:59:09;;;;;;;11.17;9.97;;;22.10;99.90;;;;;;5018018;28;20235;-82
2021/09/08 11:01:35;;;;;;;12.97;11.63;;;22.10;99.90;;;;;;5017190;28;20178;-82
2021/09/08 11:04:01;;;;;;;15.30;12.13;;;22.20;99.90;;;;;;5008097;28;20211;-82
2021/09/08 11:06:37;;;;;;;12.13;10.57;;;22.10;99.90;;;;;;5031818;28;20258;-81
2021/09/08 11:09:05;;;;;;;11.73;10.53;;;22.20;99.90;;;;;;5017561;28;20663;-81
2021/09/08 11:11:31;;;;;;;11.10;10.10;;;22.30;99.90;;;;;;5009463;28;20195;-81
2021/09/08 11:13:57;;;;;;;12.27;11.13;;;22.60;99.90;;;;;;5019257;28;20286;-81
2021/09/08 11:16:25;;;;;;;11.77;10.07;;;22.60;99.90;;;;;;5018415;28;20167;-81
2021/09/08 11:18:54;;;;;;;10.20;9.20;;;22.70;99.90;;;;;;5018939;28;20653;-81
2021/09/08 11:21:25;;;;;;;12.17;10.23;;;22.90;99.90;;;;;;5016117;28;20232;-81
2021/09/08 11:24:20;;;;;;;11.90;10.80;;;23.00;99.90;;;;;;5015073;28;20203;-81
2021/09/08 11:26:46;;;;;;;11.17;10.07;;;23.00;99.90;;;;;;5004959;28;20684;-82
2021/09/08 11:29:14;;;;;;;10.10;9.07;;;23.00;99.90;;;;;;5010105;28;20259;-82
2021/09/08 11:31:42;;;;;;;9.70;8.83;;;23.10;99.90;;;;;;5003619;28;20175;-82
2021/09/08 11:34:22;;;;;;;11.57;9.17;;;23.50;99.90;;;;;;5009607;28;20200;-81
2021/09/08 11:36:58;;;;;;;10.23;9.17;;;23.50;99.90;;;;;;5005423;28;20176;-82
2021/09/08 11:39:25;;;;;;;10.53;9.43;;;23.30;99.90;;;;;;5013581;28;20175;-80
2021/09/08 11:42:04;;;;;;;10.80;9.27;;;23.40;99.90;;;;;;5015434;28;20176;-81
2021/09/08 11:44:30;;;;;;;10.73;9.63;;;23.30;99.90;;;;;;5059122;22;20237;-81
2021/09/08 11:46:57;;;;;;;10.83;9.37;;;23.40;99.90;;;;;;5055427;28;20196;-81
2021/09/08 11:49:23;;;;;;;12.13;9.17;;;23.60;99.90;;;;;;5058197;28;20200;-81
2021/09/08 11:51:49;;;;;;;9.00;8.23;;;23.60;99.90;;;;;;5055248;28;20170;-81
2021/09/08 11:54:16;;;;;;;9.30;8.60;;;23.60;99.90;;;;;;5048749;28;20194;-81
2021/09/08 11:56:42;;;;;;;15.27;8.60;;;23.60;99.90;;;;;;5051990;28;20656;-81
2021/09/08 11:59:08;;;;;;;10.03;9.07;;;23.50;99.90;;;;;;5054223;28;20236;-81
2021/09/08 12:01:39;;;;;;;9.97;8.97;;;23.60;99.90;;;;;;5058686;28;20192;-82
2021/09/08 12:04:06;;;;;;;11.57;8.37;;;23.70;99.90;;;;;;5052802;28;20198;-81
2021/09/08 12:06:52;;;;;;;9.87;8.43;;;23.90;99.90;;;;;;5061039;28;20671;-81
2021/09/08 12:09:17;;;;;;;9.40;8.50;;;23.90;99.90;;;;;;5052073;28;20190;-81
2021/09/08 12:11:47;;;;;;;8.77;7.97;;;23.90;99.90;;;;;;5059761;28;20178;-82
2021/09/08 12:14:22;;;;;;;9.60;8.20;;;24.10;99.90;;;;;;5057798;28;20177;-81
2021/09/08 12:16:53;;;;;;;9.50;8.60;;;24.10;99.90;;;;;;5058619;28;20205;-82
2021/09/08 12:19:27;;;;;;;9.27;8.33;;;24.20;99.90;;;;;;5054473;28;20652;-81
2021/09/08 12:22:02;;;;;;;9.83;8.77;;;24.30;99.90;;;;;;5055389;28;20256;-82
2021/09/08 12:24:30;;;;;;;8.30;7.53;;;24.20;99.90;;;;;;5059461;28;20323;-82
2021/09/08 12:26:57;;;;;;;8.93;8.07;;;24.30;99.90;;;;;;5054643;28;20181;-82
2021/09/08 12:29:23;;;;;;;9.17;8.27;;;24.20;99.90;;;;;;5068133;28;20651;-82